Winthrop, Missouri
Current Conditions -  °F | °C
As of 2:53 AM on Saturday 20 Dec 2014 (Local Time) from KSTJ Reporting Station
Overcast Overcast  
Wind Chill: 26°   Ceiling: 1400
Heat Index: 32°   Visibility: 10mi
Dew Point: 29°   Wind: 6mph
Humidity: 88%   Direction: 160°SSE
Pressure: 30.2"   Gusts: NA
Location:  39.5691°N, 95.0419°W
Report Text: KSTJ 200853Z AUTO 16005KT 10SM OVC014 00/M02 A3020 RMK AO2 SLP234 T00001017 55007
Loading
Personal Weather Stations






























Interactive Weather Map New forecast layout! Learn more

10-Day Weather Forecast

Advertisements
Track Severe Weather on mobile